createdAt,value
2022-11-12T00:03:06.316Z,29.75
2022-11-12T00:05:53.506Z,27.98
2022-11-12T00:08:42.152Z,22.75
2022-11-12T00:11:28.603Z,25.98
2022-11-12T00:14:15.309Z,24.23
2022-11-12T00:17:02.178Z,21.63
2022-11-12T00:19:49.178Z,25.63
2022-11-12T00:22:36.085Z,26.45
2022-11-12T00:25:22.288Z,34.25
2022-11-12T00:28:10.723Z,27.45
2022-11-12T00:30:57.983Z,29.02
2022-11-12T00:33:44.607Z,28.88
2022-11-12T00:36:31.065Z,23.33
2022-11-12T00:39:17.661Z,25.38
2022-11-12T00:42:04.153Z,29.05
2022-11-12T00:44:50.523Z,31.10
2022-11-12T00:47:36.570Z,28.08
2022-11-12T00:50:23.641Z,24.85
2022-11-12T00:53:10.099Z,27.63
2022-11-12T00:56:07.147Z,30.67
2022-11-12T00:58:53.719Z,23.27
2022-11-12T01:01:40.956Z,28.45
2022-11-12T01:04:27.439Z,25.30
2022-11-12T01:07:16.078Z,23.70
2022-11-12T01:10:02.390Z,22.80
2022-11-12T01:12:48.782Z,31.38
2022-11-12T01:15:42.288Z,25.27
2022-11-12T01:18:29.360Z,23.55
2022-11-12T01:21:15.882Z,27.70
2022-11-12T01:24:02.679Z,28.85
2022-11-12T01:26:51.720Z,26.30
2022-11-12T01:29:38.470Z,26.17
2022-11-12T01:32:24.594Z,27.70
2022-11-12T01:35:11.003Z,33.80
2022-11-12T01:37:57.698Z,31.17
2022-11-12T01:40:44.690Z,28.15
2022-11-12T01:43:34.014Z,29.05
2022-11-12T01:46:28.656Z,30.58
2022-11-12T01:49:31.687Z,30.83
2022-11-12T01:52:17.986Z,29.17
2022-11-12T01:55:12.936Z,33.67
2022-11-12T01:58:12.416Z,37.03
2022-11-12T02:00:59.751Z,35.17
2022-11-12T02:03:46.113Z,32.75
2022-11-12T02:06:33.740Z,35.00
2022-11-12T02:09:20.182Z,32.60
2022-11-12T02:12:07.205Z,34.58
2022-11-12T02:14:53.641Z,34.33
2022-11-12T02:17:40.046Z,26.13
2022-11-12T02:20:27.214Z,30.88
2022-11-12T02:23:13.347Z,31.25
2022-11-12T02:26:01.113Z,30.13
2022-11-12T02:28:47.842Z,31.13
2022-11-12T02:31:34.332Z,30.88
2022-11-12T02:34:20.902Z,32.47
2022-11-12T02:37:08.246Z,29.52
2022-11-12T02:39:55.229Z,29.15
2022-11-12T02:42:44.444Z,26.67
2022-11-12T02:45:32.151Z,30.92
2022-11-12T02:48:19.425Z,33.25
2022-11-12T02:51:07.564Z,29.13
2022-11-12T02:53:56.582Z,28.70
2022-11-12T02:56:42.717Z,29.02
2022-11-12T02:59:29.006Z,28.13
2022-11-12T03:02:16.515Z,30.05
2022-11-12T03:05:03.483Z,37.10
2022-11-12T03:07:49.903Z,36.15
2022-11-12T03:10:39.212Z,34.10
2022-11-12T03:13:25.457Z,28.65
2022-11-12T03:16:12.824Z,35.10
2022-11-12T03:18:59.181Z,30.60
2022-11-12T03:21:45.789Z,29.92
2022-11-12T03:24:32.092Z,34.15
2022-11-12T03:27:18.871Z,32.35
2022-11-12T03:30:07.461Z,36.10
2022-11-12T03:32:54.026Z,35.40
2022-11-12T03:35:40.923Z,30.95
2022-11-12T03:38:28.441Z,34.88
2022-11-12T03:41:15.021Z,29.67
2022-11-12T03:44:03.919Z,33.10
2022-11-12T03:46:50.152Z,35.05
2022-11-12T03:49:36.999Z,36.90
2022-11-12T03:52:23.531Z,31.33
2022-11-12T03:55:10.878Z,30.85
2022-11-12T03:57:57.831Z,30.90
2022-11-12T04:00:44.431Z,32.45
2022-11-12T04:03:31.455Z,31.95
2022-11-12T04:06:36.600Z,34.33
2022-11-12T04:09:23.150Z,35.35
2022-11-12T04:12:28.728Z,32.88
2022-11-12T04:15:15.386Z,28.52
2022-11-12T04:18:22.674Z,33.28
2022-11-12T04:21:31.205Z,34.63
2022-11-12T04:24:42.186Z,29.83
2022-11-12T04:27:34.275Z,31.52
2022-11-12T04:30:20.877Z,32.42
2022-11-12T04:33:07.603Z,40.70
2022-11-12T04:35:54.258Z,30.63
2022-11-12T04:38:40.597Z,34.95
2022-11-12T04:41:45.494Z,31.40
2022-11-12T04:44:50.787Z,30.92
2022-11-12T04:47:39.494Z,31.15
2022-11-12T04:50:25.669Z,36.20
2022-11-12T04:53:12.387Z,31.10
2022-11-12T04:55:59.883Z,32.30
2022-11-12T04:58:47.827Z,37.28
2022-11-12T05:01:34.015Z,33.22
2022-11-12T05:04:21.983Z,36.25
2022-11-12T05:07:08.622Z,35.35
2022-11-12T05:09:55.244Z,35.63
2022-11-12T05:12:43.697Z,33.53
2022-11-12T05:15:30.565Z,34.45
2022-11-12T05:18:17.349Z,34.25
2022-11-12T05:21:23.825Z,35.22
2022-11-12T05:24:22.421Z,32.08
2022-11-12T05:27:16.748Z,28.77
2022-11-12T05:30:04.168Z,33.83
2022-11-12T05:32:50.903Z,36.95
2022-11-12T05:35:36.820Z,36.97
2022-11-12T05:38:23.621Z,30.35
2022-11-12T05:41:11.645Z,32.55
2022-11-12T05:44:00.327Z,31.75
2022-11-12T05:46:47.235Z,31.05
2022-11-12T05:49:33.997Z,29.65
2022-11-12T05:52:20.403Z,27.63
2022-11-12T05:55:08.335Z,36.38
2022-11-12T05:57:54.489Z,30.27
2022-11-12T06:00:41.216Z,32.25
2022-11-12T06:03:28.795Z,35.25
2022-11-12T06:06:15.590Z,33.60
2022-11-12T06:09:01.893Z,36.22
2022-11-12T06:11:50.674Z,29.98
2022-11-12T06:14:37.345Z,30.50
2022-11-12T06:17:23.760Z,29.70
2022-11-12T06:20:10.579Z,28.35
2022-11-12T06:22:57.875Z,31.67
2022-11-12T06:25:44.387Z,33.33
2022-11-12T06:28:31.157Z,31.90
2022-11-12T06:31:18.312Z,33.00
2022-11-12T06:34:05.834Z,27.80
2022-11-12T06:36:52.147Z,32.13
2022-11-12T06:39:43.137Z,32.80
2022-11-12T06:42:29.691Z,27.85
2022-11-12T06:45:16.930Z,28.17
2022-11-12T06:48:03.725Z,36.50
2022-11-12T06:50:50.657Z,31.70
2022-11-12T06:53:37.256Z,27.95
2022-11-12T06:56:24.031Z,29.73
2022-11-12T06:59:11.436Z,30.85
2022-11-12T07:01:58.385Z,29.17
2022-11-12T07:04:45.420Z,31.63
2022-11-12T07:07:31.915Z,28.25
2022-11-12T07:10:18.572Z,31.35
2022-11-12T07:13:05.608Z,27.90
2022-11-12T07:15:51.635Z,30.75
2022-11-12T07:18:38.509Z,29.08
2022-11-12T07:21:30.347Z,29.42
2022-11-12T07:24:18.798Z,29.55
2022-11-12T07:27:05.419Z,27.75
2022-11-12T07:29:52.727Z,30.80
2022-11-12T07:32:44.167Z,31.60
2022-11-12T07:35:33.903Z,32.30
2022-11-12T07:38:20.511Z,36.67
2022-11-12T07:41:17.315Z,34.05
2022-11-12T07:44:04.793Z,33.78
2022-11-12T07:46:51.879Z,36.38
2022-11-12T07:49:38.326Z,40.05
2022-11-12T07:52:25.187Z,34.42
2022-11-12T07:55:11.875Z,34.00
2022-11-12T07:58:00.674Z,32.65
2022-11-12T08:00:47.635Z,32.33
2022-11-12T08:03:34.259Z,38.72
2022-11-12T08:06:21.590Z,36.22
2022-11-12T08:09:08.927Z,36.70
2022-11-12T08:11:56.032Z,36.30
2022-11-12T08:14:42.932Z,37.38
2022-11-12T08:17:29.601Z,34.42
2022-11-12T08:20:16.241Z,32.60
2022-11-12T08:23:03.048Z,36.35
2022-11-12T08:25:52.171Z,37.45
2022-11-12T08:28:39.427Z,37.17
2022-11-12T08:31:26.934Z,33.92
2022-11-12T08:34:18.708Z,31.73
2022-11-12T08:37:09.387Z,36.38
2022-11-12T08:39:55.735Z,39.85
2022-11-12T08:42:42.490Z,37.53
2022-11-12T08:45:29.484Z,38.75
2022-11-12T08:48:15.912Z,37.22
2022-11-12T08:51:05.318Z,34.42
2022-11-12T08:53:52.299Z,42.72
2022-11-12T08:56:40.046Z,37.20
2022-11-12T08:59:29.018Z,35.95
2022-11-12T09:02:15.148Z,34.90
2022-11-12T09:05:04.243Z,35.53
2022-11-12T09:08:06.817Z,38.45
2022-11-12T09:10:54.085Z,43.15
2022-11-12T09:13:41.027Z,38.10
2022-11-12T09:16:28.430Z,34.20
2022-11-12T09:19:17.231Z,36.42
2022-11-12T09:22:03.945Z,39.88
2022-11-12T09:24:50.487Z,43.55
2022-11-12T09:27:36.946Z,34.15
2022-11-12T09:30:24.274Z,37.67
2022-11-12T09:33:10.798Z,33.15
2022-11-12T09:36:02.775Z,33.45
2022-11-12T09:38:49.531Z,34.42
2022-11-12T09:41:42.876Z,38.38
2022-11-12T09:44:36.511Z,38.97
2022-11-12T09:47:41.271Z,33.85
2022-11-12T09:50:37.646Z,31.88
2022-11-12T09:53:44.594Z,32.53
2022-11-12T09:56:33.950Z,32.75
2022-11-12T09:59:22.175Z,34.90
2022-11-12T10:02:38.148Z,31.92
2022-11-12T10:05:56.156Z,35.92
2022-11-12T10:09:05.472Z,32.78
2022-11-12T10:12:31.871Z,29.27
2022-11-12T10:15:47.771Z,33.75
2022-11-12T10:18:46.095Z,28.98
2022-11-12T10:21:38.574Z,32.30
2022-11-12T10:24:29.614Z,33.35
2022-11-12T10:27:26.289Z,27.35
2022-11-12T10:30:23.950Z,28.23
2022-11-12T10:33:14.991Z,27.67
2022-11-12T10:36:13.389Z,31.83
2022-11-12T10:39:02.760Z,31.65
2022-11-12T10:42:10.291Z,28.98
2022-11-12T10:45:20.570Z,30.05
2022-11-12T10:48:35.204Z,31.27
2022-11-12T10:51:30.408Z,32.22
2022-11-12T10:54:30.555Z,31.33
2022-11-12T10:57:24.524Z,29.65
2022-11-12T11:00:14.056Z,30.88
2022-11-12T11:03:05.567Z,29.33
2022-11-12T11:06:03.980Z,27.30
2022-11-12T11:09:07.872Z,28.77
2022-11-12T11:11:54.901Z,25.67
2022-11-12T11:14:44.531Z,29.08
2022-11-12T11:17:31.514Z,27.42
2022-11-12T11:20:33.246Z,23.70
2022-11-12T11:23:28.212Z,26.25
2022-11-12T11:26:34.420Z,23.88
2022-11-12T11:29:29.682Z,28.75
2022-11-12T11:32:37.599Z,26.90
2022-11-12T11:35:37.216Z,27.73
2022-11-12T11:38:42.101Z,25.42
2022-11-12T11:41:53.043Z,26.73
2022-11-12T11:45:07.847Z,28.85
2022-11-12T11:48:14.269Z,26.27
2022-11-12T11:51:31.802Z,27.40
2022-11-12T11:54:56.577Z,24.20
2022-11-12T11:57:59.711Z,28.98
2022-11-12T12:00:47.899Z,28.95
2022-11-12T12:03:46.713Z,27.50
2022-11-12T12:06:58.275Z,33.83
2022-11-12T12:09:49.688Z,31.77
2022-11-12T12:12:43.565Z,31.33
2022-11-12T12:16:10.035Z,26.95
2022-11-12T12:19:21.140Z,30.35
2022-11-12T12:22:22.034Z,27.83
2022-11-12T12:25:22.622Z,27.33
2022-11-12T12:28:13.271Z,32.10
2022-11-12T12:31:08.023Z,25.15
2022-11-12T12:34:02.893Z,32.15
2022-11-12T12:36:56.883Z,31.25
2022-11-12T12:40:01.676Z,28.02
2022-11-12T12:43:18.848Z,27.05
2022-11-12T12:46:06.757Z,28.00
2022-11-12T12:48:54.407Z,29.02
2022-11-12T12:51:41.190Z,28.08
2022-11-12T12:54:39.366Z,25.80
2022-11-12T12:57:46.162Z,23.75
2022-11-12T13:00:39.854Z,24.20
2022-11-12T13:03:44.463Z,23.25
2022-11-12T13:06:46.629Z,25.67
2022-11-12T13:09:33.892Z,21.48
2022-11-12T13:12:20.374Z,19.95
2022-11-12T13:15:18.950Z,22.42
2022-11-12T13:18:15.850Z,24.60
2022-11-12T13:24:09.440Z,29.92
2022-11-12T13:27:00.560Z,25.58
2022-11-12T13:29:48.037Z,20.03
2022-11-12T13:32:53.766Z,21.00
2022-11-12T13:35:40.612Z,23.65
2022-11-12T13:38:27.488Z,22.88
2022-11-12T13:41:43.200Z,22.70
2022-11-12T13:44:30.493Z,20.35
2022-11-12T13:47:21.365Z,19.23
2022-11-12T13:50:13.382Z,21.60
2022-11-12T13:53:00.150Z,20.85
2022-11-12T13:55:53.752Z,23.27
2022-11-12T13:58:39.951Z,23.80
2022-11-12T14:01:26.928Z,21.00
2022-11-12T14:04:16.098Z,26.95
2022-11-12T14:07:26.129Z,23.02
2022-11-12T14:10:18.556Z,28.27
2022-11-12T14:13:05.086Z,34.28
2022-11-12T14:16:05.592Z,28.77
2022-11-12T14:19:03.862Z,18.10
2022-11-12T14:22:14.068Z,19.15
2022-11-12T14:25:02.053Z,17.80
2022-11-12T14:27:53.997Z,20.60
2022-11-12T14:30:45.309Z,23.60
2022-11-12T14:33:32.846Z,21.95
2022-11-12T14:36:19.881Z,19.70
2022-11-12T14:39:07.140Z,20.58
2022-11-12T14:41:55.353Z,20.58
2022-11-12T14:44:42.409Z,20.33
2022-11-12T14:47:29.231Z,28.80
2022-11-12T14:50:32.493Z,20.70
2022-11-12T14:53:39.659Z,22.20
2022-11-12T14:56:36.164Z,27.80
2022-11-12T14:59:23.012Z,24.73
2022-11-12T15:02:34.256Z,24.83
2022-11-12T15:05:24.671Z,31.10
2022-11-12T15:08:12.358Z,40.15
2022-11-12T15:11:22.392Z,23.08
2022-11-12T15:14:27.601Z,24.38
2022-11-12T15:17:34.646Z,28.60
2022-11-12T15:20:21.252Z,27.17
2022-11-12T15:23:21.996Z,24.08
2022-11-12T15:26:22.610Z,43.03
2022-11-12T15:29:24.936Z,35.20
2022-11-12T15:32:13.752Z,50.97
2022-11-12T15:35:02.119Z,29.33
2022-11-12T15:37:49.084Z,34.05
2022-11-12T15:40:45.834Z,29.80
2022-11-12T15:43:37.020Z,28.20
2022-11-12T15:46:23.639Z,30.80
2022-11-12T15:49:13.919Z,27.70
2022-11-12T15:52:00.878Z,29.63
2022-11-12T15:54:48.211Z,29.15
2022-11-12T15:57:40.089Z,36.53
2022-11-12T16:03:22.162Z,33.03
2022-11-12T16:06:13.842Z,32.75
2022-11-12T16:09:00.226Z,44.95
2022-11-12T16:11:49.825Z,42.38
2022-11-12T16:14:36.236Z,37.33
2022-11-12T16:17:22.771Z,31.33
2022-11-12T16:20:41.116Z,35.35
2022-11-12T16:23:28.918Z,37.95
2022-11-12T16:26:23.178Z,41.42
2022-11-12T16:29:13.538Z,51.30
2022-11-12T16:32:00.172Z,36.85
2022-11-12T16:34:46.477Z,37.03
2022-11-12T16:37:33.511Z,32.70
2022-11-12T16:40:31.317Z,32.10
2022-11-12T16:43:18.068Z,36.50
2022-11-12T16:46:16.163Z,36.72
2022-11-12T16:49:03.437Z,45.55
2022-11-12T16:51:50.610Z,41.60
2022-11-12T16:54:37.527Z,37.17
2022-11-12T16:57:24.256Z,40.20
2022-11-12T17:00:16.493Z,39.30
2022-11-12T17:03:03.302Z,38.88
2022-11-12T17:05:55.195Z,46.85
2022-11-12T17:08:42.113Z,87.00
2022-11-12T17:11:29.700Z,82.72
2022-11-12T17:14:18.427Z,147.82
2022-11-12T17:17:05.687Z,97.47
2022-11-12T17:19:51.808Z,61.40
2022-11-12T17:22:38.860Z,57.67
2022-11-12T17:25:25.432Z,47.17
2022-11-12T17:28:11.873Z,52.90
2022-11-12T17:31:15.156Z,51.33
2022-11-12T17:34:07.609Z,53.20
2022-11-12T17:36:54.099Z,44.58
2022-11-12T17:39:41.215Z,53.30
2022-11-12T17:42:27.967Z,80.50
2022-11-12T17:45:14.519Z,63.33
2022-11-12T17:48:00.896Z,59.47
2022-11-12T17:50:50.325Z,51.55
2022-11-12T17:53:37.307Z,53.28
2022-11-12T17:56:24.467Z,60.25
2022-11-12T17:59:10.576Z,123.15
2022-11-12T18:01:57.159Z,93.53
2022-11-12T18:04:43.412Z,52.90
2022-11-12T18:07:30.127Z,50.25
2022-11-12T18:10:19.570Z,48.28
2022-11-12T18:13:06.614Z,49.40
2022-11-12T18:15:53.228Z,45.15
2022-11-12T18:18:43.946Z,47.75
2022-11-12T18:21:30.707Z,47.78
2022-11-12T18:24:17.750Z,50.03
2022-11-12T18:27:04.321Z,65.88
2022-11-12T18:29:50.959Z,47.65
2022-11-12T18:32:39.316Z,54.88
2022-11-12T18:35:29.745Z,112.45
2022-11-12T18:38:17.478Z,88.57
2022-11-12T18:41:12.696Z,99.95
2022-11-12T18:43:59.186Z,65.38
2022-11-12T18:46:45.883Z,64.40
2022-11-12T18:49:34.809Z,64.78
2022-11-12T18:52:21.370Z,69.93
2022-11-12T18:55:08.166Z,68.40
2022-11-12T18:57:54.718Z,71.13
2022-11-12T19:00:41.268Z,88.07
2022-11-12T19:03:28.116Z,73.97
2022-11-12T19:06:15.442Z,132.98
2022-11-12T19:09:06.009Z,105.43
2022-11-12T19:11:52.772Z,117.60
2022-11-12T19:14:39.559Z,88.25
2022-11-12T19:17:30.533Z,152.88
2022-11-12T19:20:18.952Z,99.18
2022-11-12T19:23:05.888Z,65.63
2022-11-12T19:25:55.472Z,74.90
2022-11-12T19:28:43.069Z,79.80
2022-11-12T19:31:30.141Z,79.60
2022-11-12T19:34:16.967Z,57.70
2022-11-12T19:37:31.991Z,69.90
2022-11-12T19:40:11.126Z,59.97
2022-11-12T19:42:57.914Z,54.10
2022-11-12T19:45:44.904Z,57.55
2022-11-12T19:48:32.140Z,112.90
2022-11-12T19:51:18.833Z,61.65
2022-11-12T19:54:06.436Z,80.47
2022-11-12T19:56:53.285Z,108.25
2022-11-12T19:59:41.017Z,101.88
2022-11-12T20:02:28.080Z,109.60
2022-11-12T20:05:15.243Z,206.73
2022-11-12T20:08:01.549Z,180.60
2022-11-12T20:10:48.386Z,162.00
2022-11-12T20:13:35.036Z,190.90
2022-11-12T20:16:25.515Z,106.38
2022-11-12T20:19:12.364Z,110.97
2022-11-12T20:21:59.762Z,91.18
2022-11-12T20:24:46.413Z,257.30
2022-11-12T20:27:32.890Z,95.25
2022-11-12T20:30:21.843Z,70.38
2022-11-12T20:33:09.965Z,83.40
2022-11-12T20:36:07.622Z,64.80
2022-11-12T20:38:55.770Z,68.10
2022-11-12T20:41:42.724Z,138.73
2022-11-12T20:44:29.705Z,94.30
2022-11-12T20:47:16.523Z,148.18
2022-11-12T20:50:05.275Z,85.47
2022-11-12T20:52:55.040Z,74.07
2022-11-12T20:55:42.001Z,68.03
2022-11-12T20:58:29.888Z,76.47
2022-11-12T21:01:19.336Z,158.45
2022-11-12T21:04:06.303Z,112.07
2022-11-12T21:06:53.520Z,71.28
2022-11-12T21:09:40.058Z,73.38
2022-11-12T21:12:27.382Z,105.47
2022-11-12T21:15:13.571Z,77.63
2022-11-12T21:18:02.169Z,76.00
2022-11-12T21:20:48.470Z,96.20
2022-11-12T21:23:37.481Z,99.03
2022-11-12T21:26:24.517Z,110.10
2022-11-12T21:29:19.047Z,81.20
2022-11-12T21:32:11.739Z,100.28
2022-11-12T21:35:08.185Z,116.68
2022-11-12T21:37:55.658Z,94.65
2022-11-12T21:40:43.703Z,82.40
2022-11-12T21:43:40.728Z,113.32
2022-11-12T21:46:33.369Z,105.32
2022-11-12T21:49:19.922Z,69.60
2022-11-12T21:52:09.315Z,83.63
2022-11-12T21:54:55.638Z,68.07
2022-11-12T21:57:41.948Z,69.60
2022-11-12T22:00:41.619Z,66.88
2022-11-12T22:03:31.708Z,81.30
2022-11-12T22:06:20.196Z,81.13
2022-11-12T22:09:10.347Z,92.65
2022-11-12T22:11:57.156Z,104.80
2022-11-12T22:14:43.858Z,90.85
2022-11-12T22:17:34.156Z,83.10
2022-11-12T22:20:20.976Z,94.03
2022-11-12T22:23:07.352Z,95.13
2022-11-12T22:25:57.558Z,96.10
2022-11-12T22:28:44.786Z,108.55
2022-11-12T22:31:32.833Z,77.30
2022-11-12T22:34:18.999Z,111.82
2022-11-12T22:37:05.847Z,70.15
2022-11-12T22:39:52.741Z,81.82
2022-11-12T22:42:39.468Z,169.98
2022-11-12T22:45:26.043Z,178.25
2022-11-12T22:48:13.066Z,146.45
2022-11-12T22:51:04.356Z,169.02
2022-11-12T22:56:43.790Z,85.93
2022-11-12T22:59:30.283Z,70.53
2022-11-12T23:02:16.697Z,65.80
2022-11-12T23:05:03.536Z,68.03
2022-11-12T23:07:50.394Z,80.82
2022-11-12T23:10:39.409Z,70.55
2022-11-12T23:13:30.058Z,69.40
2022-11-12T23:16:20.524Z,66.70
2022-11-12T23:19:06.880Z,73.15
2022-11-12T23:21:54.357Z,80.40
2022-11-12T23:24:40.787Z,57.97
2022-11-12T23:27:29.014Z,55.35
2022-11-12T23:30:15.491Z,59.63
2022-11-12T23:33:03.229Z,61.25
2022-11-12T23:35:49.537Z,51.10
2022-11-12T23:38:36.302Z,52.72
2022-11-12T23:41:28.777Z,53.53
2022-11-12T23:44:15.900Z,52.73
2022-11-12T23:47:02.144Z,56.88
2022-11-12T23:49:49.223Z,59.28
2022-11-12T23:52:35.466Z,50.47
2022-11-12T23:55:21.713Z,47.75
2022-11-12T23:58:08.619Z,54.17
